createdAt,value
2019-03-26T00:01:08.719Z,98815.83
2019-03-26T00:02:16.993Z,98814.41
2019-03-26T00:03:24.865Z,98819.22
2019-03-26T00:04:33.152Z,98822.23
2019-03-26T00:05:41.295Z,98817.36
2019-03-26T00:06:49.192Z,98809.89
2019-03-26T00:07:57.101Z,98809.89
2019-03-26T00:09:07.925Z,98806.88
2019-03-26T00:10:15.732Z,98807.25
2019-03-26T00:11:23.938Z,98805.88
2019-03-26T00:12:32.050Z,98806.63
2019-03-26T00:13:40.125Z,98799.66
2019-03-26T00:14:48.124Z,98800.61
2019-03-26T00:15:55.983Z,98791.77
2019-03-26T00:17:04.115Z,98796.09
2019-03-26T00:18:12.203Z,98800.52
2019-03-26T00:19:20.700Z,98795.72
2019-03-26T00:20:28.477Z,98795.34
2019-03-26T00:21:36.623Z,98798.98
2019-03-26T00:22:44.809Z,98795.50
2019-03-26T00:23:52.843Z,98794.56
2019-03-26T00:25:01.125Z,98792.77
2019-03-26T00:26:09.121Z,98795.13
2019-03-26T00:27:17.181Z,98792.49
2019-03-26T00:28:25.386Z,98796.28
2019-03-26T00:29:33.277Z,98795.60
2019-03-26T00:30:41.479Z,98792.98
2019-03-26T00:31:49.780Z,98796.36
2019-03-26T00:32:57.646Z,98790.91
2019-03-26T00:34:18.402Z,98798.73
2019-03-26T00:35:15.478Z,98796.28
2019-03-26T00:36:23.442Z,98802.95
2019-03-26T00:37:31.696Z,98803.70
2019-03-26T00:38:39.852Z,98809.45
2019-03-26T00:39:47.993Z,98805.02
2019-03-26T00:40:55.833Z,98805.66
2019-03-26T00:42:03.828Z,98809.33
2019-03-26T00:43:11.849Z,98813.39
2019-03-26T00:44:19.867Z,98809.97
2019-03-26T00:45:27.851Z,98810.34
2019-03-26T00:46:36.054Z,98806.58
2019-03-26T00:47:44.161Z,98807.33
2019-03-26T00:48:51.895Z,98819.67
2019-03-26T00:49:59.932Z,98816.19
2019-03-26T00:51:07.916Z,98816.46
2019-03-26T00:52:15.894Z,98812.06
2019-03-26T00:53:23.966Z,98817.41
2019-03-26T00:54:31.809Z,98817.99
2019-03-26T00:55:39.848Z,98820.53
2019-03-26T00:56:47.767Z,98821.31
2019-03-26T00:57:55.901Z,98829.31
2019-03-26T00:59:03.988Z,98827.34
2019-03-26T01:00:13.521Z,98829.03
2019-03-26T01:01:21.615Z,98826.02
2019-03-26T01:02:29.608Z,98831.95
2019-03-26T01:03:37.499Z,98829.63
2019-03-26T01:04:45.600Z,98828.38
2019-03-26T01:05:53.506Z,98833.38
2019-03-26T01:07:01.620Z,98839.34
2019-03-26T01:08:09.832Z,98843.09
2019-03-26T01:09:17.828Z,98835.82
2019-03-26T01:10:29.442Z,98843.65
2019-03-26T01:11:38.376Z,98845.06
2019-03-26T01:12:46.375Z,98848.45
2019-03-26T01:13:54.259Z,98844.38
2019-03-26T01:15:02.481Z,98837.31
2019-03-26T01:16:10.535Z,98845.50
2019-03-26T01:17:18.571Z,98848.26
2019-03-26T01:18:26.314Z,98846.00
2019-03-26T01:19:34.359Z,98854.97
2019-03-26T01:20:42.485Z,98858.73
2019-03-26T01:21:50.866Z,98854.59
2019-03-26T01:22:58.913Z,98852.05
2019-03-26T01:24:07.036Z,98847.88
2019-03-26T01:25:15.164Z,98857.84
2019-03-26T01:26:23.144Z,98852.77
2019-03-26T01:27:31.350Z,98850.13
2019-03-26T01:28:39.308Z,98851.66
2019-03-26T01:29:47.593Z,98853.34
2019-03-26T01:30:55.613Z,98855.42
2019-03-26T01:32:03.481Z,98856.73
2019-03-26T01:33:11.611Z,98862.84
2019-03-26T01:34:19.372Z,98863.88
2019-03-26T01:35:27.189Z,98860.67
2019-03-26T01:36:35.211Z,98859.09
2019-03-26T01:37:42.917Z,98861.73
2019-03-26T01:38:50.854Z,98859.38
2019-03-26T01:39:58.984Z,98860.13
2019-03-26T01:41:06.894Z,98859.48
2019-03-26T01:42:15.166Z,98868.25
2019-03-26T01:43:23.228Z,98870.04
2019-03-26T01:44:31.238Z,98865.52
2019-03-26T01:45:39.435Z,98867.30
2019-03-26T01:46:47.567Z,98874.55
2019-03-26T01:47:55.569Z,98873.17
2019-03-26T01:49:03.601Z,98876.81
2019-03-26T01:50:12.006Z,98878.33
2019-03-26T01:51:20.155Z,98886.49
2019-03-26T01:52:28.223Z,98884.42
2019-03-26T01:53:36.347Z,98884.99
2019-03-26T01:54:44.414Z,98881.39
2019-03-26T01:55:52.580Z,98881.39
2019-03-26T01:57:00.744Z,98878.66
2019-03-26T01:58:08.856Z,98883.27
2019-03-26T01:59:16.632Z,98886.91
2019-03-26T02:00:24.941Z,98884.56
2019-03-26T02:01:32.924Z,98886.16
2019-03-26T02:02:40.824Z,98886.82
2019-03-26T02:03:48.764Z,98880.80
2019-03-26T02:05:00.219Z,98881.33
2019-03-26T02:06:06.913Z,98886.79
2019-03-26T02:07:14.949Z,98883.24
2019-03-26T02:08:22.939Z,98890.21
2019-03-26T02:09:31.399Z,98886.34
2019-03-26T02:10:39.521Z,98888.98
2019-03-26T02:11:47.408Z,98888.83
2019-03-26T02:12:55.447Z,98888.83
2019-03-26T02:14:03.425Z,98890.73
2019-03-26T02:15:15.818Z,98892.70
2019-03-26T02:16:23.689Z,98898.58
2019-03-26T02:17:31.561Z,98898.58
2019-03-26T02:18:39.682Z,98896.13
2019-03-26T02:19:47.977Z,98903.87
2019-03-26T02:20:55.859Z,98904.63
2019-03-26T02:22:03.967Z,98897.66
2019-03-26T02:23:11.841Z,98891.81
2019-03-26T02:24:19.623Z,98903.59
2019-03-26T02:25:27.907Z,98907.95
2019-03-26T02:26:35.865Z,98901.26
2019-03-26T02:27:43.623Z,98903.33
2019-03-26T02:28:51.561Z,98905.39
2019-03-26T02:29:59.419Z,98911.45
2019-03-26T02:31:07.539Z,98901.38
2019-03-26T02:32:15.627Z,98907.09
2019-03-26T02:33:23.541Z,98913.63
2019-03-26T02:34:31.627Z,98909.29
2019-03-26T02:35:39.877Z,98912.58
2019-03-26T02:36:48.153Z,98907.20
2019-03-26T02:37:56.840Z,98907.58
2019-03-26T02:39:06.676Z,98909.11
2019-03-26T02:40:14.591Z,98911.18
2019-03-26T02:41:22.768Z,98916.36
2019-03-26T02:42:30.604Z,98920.31
2019-03-26T02:43:39.149Z,98918.94
2019-03-26T02:44:47.232Z,98911.93
2019-03-26T02:45:54.984Z,98914.13
2019-03-26T02:47:03.250Z,98916.36
2019-03-26T02:48:11.210Z,98914.56
2019-03-26T02:49:19.220Z,98918.63
2019-03-26T02:50:27.231Z,98923.05
2019-03-26T02:51:35.286Z,98928.70
2019-03-26T02:52:43.314Z,98922.42
2019-03-26T02:53:51.350Z,98921.84
2019-03-26T02:54:59.364Z,98924.69
2019-03-26T02:56:07.302Z,98923.05
2019-03-26T02:57:15.199Z,98928.64
2019-03-26T02:58:22.960Z,98932.19
2019-03-26T02:59:30.986Z,98932.50
2019-03-26T03:00:38.879Z,98938.16
2019-03-26T03:01:46.967Z,98940.32
2019-03-26T03:02:55.059Z,98933.82
2019-03-26T03:04:03.312Z,98936.45
2019-03-26T03:05:11.457Z,98933.45
2019-03-26T03:06:19.367Z,98947.11
2019-03-26T03:07:27.241Z,98947.86
2019-03-26T03:08:35.101Z,98945.80
2019-03-26T03:09:43.231Z,98949.53
2019-03-26T03:10:51.250Z,98956.88
2019-03-26T03:11:59.546Z,98955.76
2019-03-26T03:13:07.521Z,98960.09
2019-03-26T03:14:15.425Z,98957.45
2019-03-26T03:15:23.418Z,98963.10
2019-03-26T03:16:31.405Z,98966.02
2019-03-26T03:17:39.609Z,98966.43
2019-03-26T03:18:47.903Z,98967.91
2019-03-26T03:19:55.866Z,98968.22
2019-03-26T03:21:04.194Z,98973.09
2019-03-26T03:22:12.191Z,98969.07
2019-03-26T03:23:20.293Z,98973.50
2019-03-26T03:24:28.406Z,98976.52
2019-03-26T03:25:36.403Z,98981.01
2019-03-26T03:26:44.554Z,98976.11
2019-03-26T03:27:52.717Z,98979.66
2019-03-26T03:29:00.614Z,98983.15
2019-03-26T03:30:10.473Z,98984.41
2019-03-26T03:31:18.414Z,98983.84
2019-03-26T03:32:26.169Z,98986.47
2019-03-26T03:33:34.049Z,98986.95
2019-03-26T03:34:42.098Z,98992.12
2019-03-26T03:35:52.459Z,98993.08
2019-03-26T03:37:00.014Z,98996.09
2019-03-26T03:38:08.038Z,99003.06
2019-03-26T03:39:16.000Z,98998.91
2019-03-26T03:40:24.048Z,98997.97
2019-03-26T03:41:32.121Z,99003.53
2019-03-26T03:42:40.193Z,98999.89
2019-03-26T03:43:48.125Z,99001.27
2019-03-26T03:44:55.954Z,99007.58
2019-03-26T03:46:05.144Z,99007.96
2019-03-26T03:47:16.540Z,99007.58
2019-03-26T03:48:26.003Z,99002.30
2019-03-26T03:49:35.170Z,99002.94
2019-03-26T03:50:46.011Z,99009.47
2019-03-26T03:51:58.523Z,99005.89
2019-03-26T03:53:07.832Z,99012.17
2019-03-26T03:54:16.701Z,99010.85
2019-03-26T03:55:25.097Z,99015.59
2019-03-26T03:56:35.446Z,99024.73
2019-03-26T03:57:45.194Z,99020.40
2019-03-26T03:58:53.758Z,99032.08
2019-03-26T04:00:03.803Z,99026.43
2019-03-26T04:01:11.878Z,99027.28
2019-03-26T04:02:19.520Z,99029.16
2019-03-26T04:03:27.570Z,99035.57
2019-03-26T04:04:35.499Z,99033.69
2019-03-26T04:05:43.399Z,99034.59
2019-03-26T04:06:51.952Z,99038.17
2019-03-26T04:08:00.966Z,99039.22
2019-03-26T04:09:08.969Z,99038.74
2019-03-26T04:10:16.963Z,99041.66
2019-03-26T04:11:24.800Z,99048.10
2019-03-26T04:12:32.823Z,99048.86
2019-03-26T04:13:41.157Z,99054.89
2019-03-26T04:14:49.201Z,99054.89
2019-03-26T04:15:57.131Z,99055.67
2019-03-26T04:17:05.172Z,99065.77
2019-03-26T04:18:13.214Z,99058.47
2019-03-26T04:19:21.313Z,99063.75
2019-03-26T04:20:29.619Z,99067.17
2019-03-26T04:21:37.570Z,99065.38
2019-03-26T04:22:45.434Z,99068.08
2019-03-26T04:23:53.396Z,99068.02
2019-03-26T04:25:01.352Z,99071.88
2019-03-26T04:26:09.403Z,99074.99
2019-03-26T04:27:17.383Z,99078.02
2019-03-26T04:28:25.389Z,99079.48
2019-03-26T04:29:33.457Z,99079.11
2019-03-26T04:30:41.681Z,99077.32
2019-03-26T04:31:49.669Z,99082.06
2019-03-26T04:32:57.714Z,99081.03
2019-03-26T04:34:05.655Z,99085.83
2019-03-26T04:35:13.878Z,99087.72
2019-03-26T04:36:25.899Z,99087.34
2019-03-26T04:37:31.380Z,99092.30
2019-03-26T04:38:39.384Z,99092.68
2019-03-26T04:39:47.972Z,99087.41
2019-03-26T04:40:56.025Z,99085.17
2019-03-26T04:42:04.069Z,99089.94
2019-03-26T04:43:11.990Z,99087.37
2019-03-26T04:44:19.970Z,99077.09
2019-03-26T04:45:27.953Z,99082.70
2019-03-26T04:46:35.960Z,99080.25
2019-03-26T04:47:43.928Z,99083.27
2019-03-26T04:48:51.921Z,99086.06
2019-03-26T04:50:00.540Z,99083.89
2019-03-26T04:51:08.436Z,99080.72
2019-03-26T04:52:16.326Z,99085.34
2019-03-26T04:53:24.276Z,99082.57
2019-03-26T04:54:32.114Z,99090.48
2019-03-26T04:55:40.044Z,99085.06
2019-03-26T04:56:48.136Z,99074.66
2019-03-26T04:57:56.631Z,99081.06
2019-03-26T04:59:04.496Z,99085.95
2019-03-26T05:00:13.033Z,99082.06
2019-03-26T05:01:21.145Z,99082.62
2019-03-26T05:02:29.090Z,99087.67
2019-03-26T05:03:37.339Z,99081.08
2019-03-26T05:04:45.043Z,99079.61
2019-03-26T05:05:52.877Z,99076.92
2019-03-26T05:07:01.319Z,99076.92
2019-03-26T05:08:09.064Z,99079.52
2019-03-26T05:09:16.848Z,99072.41
2019-03-26T05:10:24.852Z,99082.72
2019-03-26T05:11:32.600Z,99077.25
2019-03-26T05:12:40.676Z,99081.05
2019-03-26T05:13:48.521Z,99084.25
2019-03-26T05:14:56.262Z,99082.55
2019-03-26T05:16:04.610Z,99081.00
2019-03-26T05:17:12.429Z,99085.33
2019-03-26T05:18:20.243Z,99080.33
2019-03-26T05:19:28.013Z,99083.20
2019-03-26T05:20:36.035Z,99079.53
2019-03-26T05:21:43.930Z,99085.66
2019-03-26T05:22:51.718Z,99080.39
2019-03-26T05:23:59.958Z,99083.58
2019-03-26T05:25:08.782Z,99081.50
2019-03-26T05:26:16.676Z,99076.14
2019-03-26T05:27:24.548Z,99080.56
2019-03-26T05:28:32.310Z,99090.34
2019-03-26T05:29:40.080Z,99089.23
2019-03-26T05:30:48.028Z,99096.20
2019-03-26T05:31:57.394Z,99090.55
2019-03-26T05:33:05.959Z,99096.38
2019-03-26T05:34:13.874Z,99099.56
2019-03-26T05:35:21.699Z,99098.25
2019-03-26T05:36:29.678Z,99108.14
2019-03-26T05:37:37.625Z,99106.53
2019-03-26T05:38:45.738Z,99106.06
2019-03-26T05:39:53.512Z,99108.06
2019-03-26T05:41:01.404Z,99112.42
2019-03-26T05:42:09.358Z,99110.38
2019-03-26T05:43:17.129Z,99111.69
2019-03-26T05:44:24.998Z,99116.64
2019-03-26T05:45:32.756Z,99109.11
2019-03-26T05:46:40.572Z,99115.47
2019-03-26T05:47:48.348Z,99112.19
2019-03-26T05:48:56.250Z,99111.09
2019-03-26T05:50:07.784Z,99113.88
2019-03-26T05:51:15.852Z,99108.52
2019-03-26T05:52:23.649Z,99107.76
2019-03-26T05:53:31.408Z,99101.16
2019-03-26T05:54:39.218Z,99109.13
2019-03-26T05:55:47.005Z,99113.03
2019-03-26T05:56:54.744Z,99114.26
2019-03-26T05:58:02.885Z,99110.77
2019-03-26T05:59:10.802Z,99111.24
2019-03-26T06:00:21.857Z,99112.00
2019-03-26T06:01:29.916Z,99112.14
2019-03-26T06:02:38.006Z,99108.95
2019-03-26T06:03:45.937Z,99106.54
2019-03-26T06:04:54.034Z,99106.36
2019-03-26T06:06:02.763Z,99108.75
2019-03-26T06:07:10.713Z,99109.73
2019-03-26T06:08:18.690Z,99109.46
2019-03-26T06:09:26.964Z,99111.02
2019-03-26T06:10:34.833Z,99112.52
2019-03-26T06:11:42.659Z,99112.70
2019-03-26T06:12:50.513Z,99107.81
2019-03-26T06:13:58.369Z,99112.84
2019-03-26T06:15:09.415Z,99105.17
2019-03-26T06:16:17.572Z,99107.52
2019-03-26T06:17:25.627Z,99110.67
2019-03-26T06:18:33.504Z,99114.54
2019-03-26T06:19:41.242Z,99113.73
2019-03-26T06:20:49.080Z,99109.48
2019-03-26T06:21:57.425Z,99115.23
2019-03-26T06:23:05.162Z,99114.48
2019-03-26T06:24:13.206Z,99117.34
2019-03-26T06:25:21.132Z,99119.29
2019-03-26T06:26:29.066Z,99124.24
2019-03-26T06:27:37.035Z,99120.44
2019-03-26T06:28:44.787Z,99114.06
2019-03-26T06:29:52.671Z,99117.75
2019-03-26T06:31:00.866Z,99121.55
2019-03-26T06:32:08.825Z,99127.92
2019-03-26T06:33:16.828Z,99122.17
2019-03-26T06:34:24.956Z,99129.56
2019-03-26T06:35:33.054Z,99121.64
2019-03-26T06:36:41.046Z,99128.62
2019-03-26T06:37:49.238Z,99126.11
2019-03-26T06:38:57.646Z,99132.44
2019-03-26T06:40:09.966Z,99128.84
2019-03-26T06:41:18.262Z,99127.19
2019-03-26T06:42:26.746Z,99126.47
2019-03-26T06:43:35.069Z,99128.41
2019-03-26T06:44:43.045Z,99126.15
2019-03-26T06:45:51.144Z,99124.98
2019-03-26T06:46:59.485Z,99129.17
2019-03-26T06:48:07.953Z,99136.33
2019-03-26T06:49:16.122Z,99132.69
2019-03-26T06:50:24.290Z,99137.53
2019-03-26T06:51:32.111Z,99137.09
2019-03-26T06:52:40.264Z,99146.45
2019-03-26T06:53:48.374Z,99142.56
2019-03-26T06:54:56.577Z,99144.29
2019-03-26T06:56:04.795Z,99142.50
2019-03-26T06:57:12.845Z,99145.98
2019-03-26T06:58:21.026Z,99143.16
2019-03-26T06:59:29.330Z,99144.98
2019-03-26T07:00:37.543Z,99147.14
2019-03-26T07:01:45.866Z,99149.28
2019-03-26T07:02:54.023Z,99150.07
2019-03-26T07:04:02.661Z,99145.45
2019-03-26T07:05:12.059Z,99144.78
2019-03-26T07:06:19.999Z,99149.81
2019-03-26T07:07:31.782Z,99144.55
2019-03-26T07:08:37.532Z,99146.17
2019-03-26T07:09:45.488Z,99146.29
2019-03-26T07:10:53.380Z,99150.86
2019-03-26T07:12:01.396Z,99152.57
2019-03-26T07:13:09.498Z,99154.28
2019-03-26T07:14:17.444Z,99154.86
2019-03-26T07:15:25.200Z,99152.12
2019-03-26T07:16:33.131Z,99154.39
2019-03-26T07:17:41.181Z,99156.19
2019-03-26T07:18:49.249Z,99157.88
2019-03-26T07:19:57.052Z,99155.98
2019-03-26T07:21:05.496Z,99163.17
2019-03-26T07:22:13.419Z,99158.14
2019-03-26T07:23:21.422Z,99159.09
2019-03-26T07:24:29.361Z,99165.80
2019-03-26T07:25:37.398Z,99159.19
2019-03-26T07:26:45.320Z,99153.80
2019-03-26T07:27:53.160Z,99162.11
2019-03-26T07:29:01.075Z,99160.41
2019-03-26T07:30:11.842Z,99158.08
2019-03-26T07:31:19.960Z,99167.70
2019-03-26T07:32:28.073Z,99167.72
2019-03-26T07:33:36.019Z,99164.23
2019-03-26T07:34:44.026Z,99161.86
2019-03-26T07:35:52.161Z,99162.98
2019-03-26T07:36:59.862Z,99157.05
2019-03-26T07:38:08.565Z,99163.46
2019-03-26T07:39:16.470Z,99161.19
2019-03-26T07:40:24.324Z,99163.59
2019-03-26T07:41:32.048Z,99164.45
2019-03-26T07:42:39.804Z,99163.98
2019-03-26T07:43:47.540Z,99162.55
2019-03-26T07:44:55.236Z,99161.53
2019-03-26T07:46:03.536Z,99160.11
2019-03-26T07:47:11.839Z,99157.67
2019-03-26T07:48:20.052Z,99154.55
2019-03-26T07:49:27.912Z,99156.61
2019-03-26T07:50:35.781Z,99161.23
2019-03-26T07:51:43.729Z,99162.48
2019-03-26T07:52:51.821Z,99160.00
2019-03-26T07:54:00.021Z,99156.23
2019-03-26T07:55:09.435Z,99147.33
2019-03-26T07:56:17.473Z,99160.72
2019-03-26T07:57:25.600Z,99153.17
2019-03-26T07:58:33.566Z,99159.38
2019-03-26T07:59:41.522Z,99157.39
2019-03-26T08:00:49.336Z,99161.36
2019-03-26T08:01:57.259Z,99163.43
2019-03-26T08:03:05.959Z,99166.38
2019-03-26T08:04:14.191Z,99160.78
2019-03-26T08:05:29.583Z,99160.68
2019-03-26T08:06:31.705Z,99155.79
2019-03-26T08:07:40.090Z,99158.98
2019-03-26T08:08:48.178Z,99161.73
2019-03-26T08:09:55.998Z,99165.44
2019-03-26T08:11:03.862Z,99166.38
2019-03-26T08:12:12.070Z,99170.70
2019-03-26T08:13:20.066Z,99166.61
2019-03-26T08:14:28.392Z,99164.80
2019-03-26T08:15:36.569Z,99164.70
2019-03-26T08:16:44.465Z,99170.58
2019-03-26T08:17:52.544Z,99157.11
2019-03-26T08:19:02.587Z,99176.78
2019-03-26T08:20:12.597Z,99153.69
2019-03-26T08:21:20.658Z,99166.17
2019-03-26T08:22:30.476Z,99156.92
2019-03-26T08:23:38.771Z,99166.84
2019-03-26T08:24:46.761Z,99164.59
2019-03-26T08:25:54.848Z,99156.66
2019-03-26T08:27:02.635Z,99163.82
2019-03-26T08:28:10.750Z,99170.75
2019-03-26T08:29:18.837Z,99165.53
2019-03-26T08:30:26.797Z,99164.68
2019-03-26T08:31:34.806Z,99169.05
2019-03-26T08:32:42.824Z,99171.13
2019-03-26T08:33:50.566Z,99162.44
2019-03-26T08:34:58.710Z,99167.16
2019-03-26T08:36:06.843Z,99166.09
2019-03-26T08:37:14.888Z,99166.20
2019-03-26T08:38:22.883Z,99168.27
2019-03-26T08:39:31.040Z,99158.34
2019-03-26T08:40:39.297Z,99154.46
2019-03-26T08:41:47.343Z,99164.34
2019-03-26T08:42:55.279Z,99159.98
2019-03-26T08:44:03.378Z,99154.47
2019-03-26T08:45:11.941Z,99151.19
2019-03-26T08:46:19.937Z,99147.24
2019-03-26T08:47:28.062Z,99161.98
2019-03-26T08:48:35.855Z,99152.66
2019-03-26T08:49:44.107Z,99153.97
2019-03-26T08:50:52.563Z,99153.63
2019-03-26T08:52:00.670Z,99156.98
2019-03-26T08:53:08.927Z,99164.54
2019-03-26T08:54:17.479Z,99163.66
2019-03-26T08:55:25.579Z,99156.38
2019-03-26T08:56:33.766Z,99158.23
2019-03-26T08:57:41.802Z,99160.22
2019-03-26T08:58:50.091Z,99165.03
2019-03-26T08:59:58.049Z,99170.13
2019-03-26T09:01:06.150Z,99167.69
2019-03-26T09:02:14.832Z,99164.56
2019-03-26T09:03:22.698Z,99165.77
2019-03-26T09:04:30.795Z,99166.25
2019-03-26T09:05:38.910Z,99162.46
2019-03-26T09:06:46.942Z,99163.46
2019-03-26T09:07:54.982Z,99162.31
2019-03-26T09:09:02.942Z,99162.87
2019-03-26T09:10:13.205Z,99145.89
2019-03-26T09:11:21.479Z,99153.59
2019-03-26T09:12:29.508Z,99153.67
2019-03-26T09:13:37.499Z,99161.36
2019-03-26T09:14:45.512Z,99148.69
2019-03-26T09:15:53.565Z,99157.27
2019-03-26T09:17:01.780Z,99146.23
2019-03-26T09:18:10.528Z,99149.75
2019-03-26T09:19:18.555Z,99164.98
2019-03-26T09:20:26.465Z,99153.77
2019-03-26T09:21:34.402Z,99155.94
2019-03-26T09:22:42.271Z,99162.63
2019-03-26T09:23:50.344Z,99148.80
2019-03-26T09:24:58.236Z,99150.86
2019-03-26T09:26:06.242Z,99147.48
2019-03-26T09:27:14.638Z,99146.92
2019-03-26T09:28:22.642Z,99142.87
2019-03-26T09:29:30.795Z,99142.87
2019-03-26T09:30:38.966Z,99151.27
2019-03-26T09:31:46.819Z,99156.42
2019-03-26T09:32:55.115Z,99138.91
2019-03-26T09:34:03.443Z,99154.98
2019-03-26T09:35:12.382Z,99147.66
2019-03-26T09:36:20.450Z,99159.15
2019-03-26T09:37:28.443Z,99155.39
2019-03-26T09:38:39.282Z,99149.54
2019-03-26T09:39:46.053Z,99148.98
2019-03-26T09:40:53.960Z,99157.12
2019-03-26T09:42:02.130Z,99159.58
2019-03-26T09:43:10.139Z,99162.67
2019-03-26T09:44:18.231Z,99156.58
2019-03-26T09:45:26.471Z,99160.14
2019-03-26T09:46:34.541Z,99165.19
2019-03-26T09:47:42.688Z,99151.20
2019-03-26T09:48:50.516Z,99150.34
2019-03-26T09:49:58.465Z,99150.30
2019-03-26T09:51:06.441Z,99149.02
2019-03-26T09:52:14.436Z,99156.42
2019-03-26T09:53:23.772Z,99157.97
2019-03-26T09:54:32.130Z,99165.22
2019-03-26T09:55:40.346Z,99165.55
2019-03-26T09:56:48.523Z,99168.23
2019-03-26T09:57:56.579Z,99164.28
2019-03-26T09:59:04.741Z,99158.80
2019-03-26T10:00:13.994Z,99160.30
2019-03-26T10:01:22.027Z,99158.50
2019-03-26T10:02:30.004Z,99159.20
2019-03-26T10:03:37.967Z,99157.55
2019-03-26T10:04:46.055Z,99151.41
2019-03-26T10:05:54.037Z,99161.13
2019-03-26T10:07:01.834Z,99170.16
2019-03-26T10:08:10.074Z,99162.13
2019-03-26T10:09:18.058Z,99158.52
2019-03-26T10:10:26.130Z,99148.98
2019-03-26T10:11:34.182Z,99148.75
2019-03-26T10:12:42.256Z,99158.12
2019-03-26T10:13:50.166Z,99156.14
2019-03-26T10:14:58.281Z,99152.14
2019-03-26T10:16:06.306Z,99147.42
2019-03-26T10:17:14.827Z,99144.70
2019-03-26T10:18:22.934Z,99150.69
2019-03-26T10:19:31.201Z,99134.93
2019-03-26T10:20:39.311Z,99144.30
2019-03-26T10:21:47.408Z,99143.45
2019-03-26T10:22:55.534Z,99137.86
2019-03-26T10:24:03.806Z,99132.55
2019-03-26T10:25:11.980Z,99137.55
2019-03-26T10:26:20.317Z,99139.61
2019-03-26T10:27:28.468Z,99130.34
2019-03-26T10:28:36.378Z,99131.93
2019-03-26T10:29:44.253Z,99127.55
2019-03-26T10:30:52.488Z,99131.27
2019-03-26T10:32:00.581Z,99128.73
2019-03-26T10:33:09.297Z,99135.61
2019-03-26T10:34:17.464Z,99128.17
2019-03-26T10:35:25.783Z,99126.40
2019-03-26T10:36:34.201Z,99122.98
2019-03-26T10:37:42.278Z,99133.63
2019-03-26T10:39:05.104Z,99124.17
2019-03-26T10:40:04.035Z,99119.83
2019-03-26T10:41:11.805Z,99116.88
2019-03-26T10:42:19.989Z,99114.34
2019-03-26T10:43:28.037Z,99114.34
2019-03-26T10:44:36.099Z,99118.72
2019-03-26T10:45:44.342Z,99119.52
2019-03-26T10:46:52.293Z,99107.86
2019-03-26T10:48:00.328Z,99103.53
2019-03-26T10:49:08.366Z,99109.52
2019-03-26T10:50:16.652Z,99104.91
2019-03-26T10:51:24.781Z,99101.86
2019-03-26T10:52:34.268Z,99103.33
2019-03-26T10:53:42.359Z,99103.36
2019-03-26T10:54:50.463Z,99109.09
2019-03-26T10:55:58.379Z,99099.50
2019-03-26T10:57:06.583Z,99100.77
2019-03-26T10:58:14.680Z,99100.83
2019-03-26T10:59:22.810Z,99103.20
2019-03-26T11:00:30.977Z,99098.97
2019-03-26T11:01:39.191Z,99101.27
2019-03-26T11:02:47.340Z,99107.42
2019-03-26T11:03:55.279Z,99104.05
2019-03-26T11:05:03.319Z,99102.36
2019-03-26T11:06:12.793Z,99106.83
2019-03-26T11:07:21.094Z,99092.44
2019-03-26T11:08:29.650Z,99108.84
2019-03-26T11:09:38.011Z,99099.83
2019-03-26T11:10:46.045Z,99096.06
2019-03-26T11:11:53.993Z,99099.57
2019-03-26T11:13:02.414Z,99103.20
2019-03-26T11:14:10.619Z,99103.44
2019-03-26T11:15:19.205Z,99105.58
2019-03-26T11:16:27.248Z,99106.67
2019-03-26T11:17:35.095Z,99096.88
2019-03-26T11:18:43.079Z,99100.89
2019-03-26T11:19:51.424Z,99096.31
2019-03-26T11:21:03.306Z,99099.80
2019-03-26T11:22:09.318Z,99091.94
2019-03-26T11:23:17.427Z,99093.64
2019-03-26T11:24:25.412Z,99092.31
2019-03-26T11:25:33.363Z,99083.95
2019-03-26T11:26:41.217Z,99082.17
2019-03-26T11:27:49.319Z,99076.41
2019-03-26T11:28:57.405Z,99072.70
2019-03-26T11:30:08.411Z,99066.38
2019-03-26T11:31:16.243Z,99067.08
2019-03-26T11:32:24.328Z,99064.27
2019-03-26T11:33:32.493Z,99074.11
2019-03-26T11:34:40.270Z,99078.73
2019-03-26T11:35:48.255Z,99066.03
2019-03-26T11:36:56.170Z,99065.89
2019-03-26T11:38:04.179Z,99055.04
2019-03-26T11:39:12.248Z,99052.89
2019-03-26T11:40:20.777Z,99062.16
2019-03-26T11:41:29.343Z,99059.75
2019-03-26T11:42:37.468Z,99065.00
2019-03-26T11:43:45.545Z,99058.06
2019-03-26T11:44:53.537Z,99046.08
2019-03-26T11:46:01.520Z,99052.50
2019-03-26T11:47:09.823Z,99052.74
2019-03-26T11:48:17.741Z,99059.14
2019-03-26T11:49:25.947Z,99046.86
2019-03-26T11:50:34.185Z,99043.53
2019-03-26T11:51:42.542Z,99054.47
2019-03-26T11:52:50.840Z,99050.83
2019-03-26T11:53:59.250Z,99054.27
2019-03-26T11:55:09.795Z,99045.21
2019-03-26T11:56:18.169Z,99053.81
2019-03-26T11:57:26.210Z,99051.66
2019-03-26T11:58:34.252Z,99048.98
2019-03-26T11:59:42.798Z,99043.88
2019-03-26T12:00:51.152Z,99035.87
2019-03-26T12:01:59.602Z,99047.31
2019-03-26T12:03:08.001Z,99033.40
2019-03-26T12:04:15.905Z,99029.75
2019-03-26T12:05:24.220Z,99027.58
2019-03-26T12:06:32.056Z,99025.72
2019-03-26T12:07:42.812Z,99029.22
2019-03-26T12:08:50.125Z,99028.00
2019-03-26T12:09:58.029Z,99045.33
2019-03-26T12:11:06.200Z,99021.71
2019-03-26T12:12:14.521Z,99030.34
2019-03-26T12:13:23.001Z,99023.83
2019-03-26T12:14:31.021Z,99027.61
2019-03-26T12:15:39.254Z,99029.02
2019-03-26T12:16:47.239Z,99026.98
2019-03-26T12:17:55.527Z,99022.03
2019-03-26T12:19:03.530Z,99032.92
2019-03-26T12:20:11.918Z,99012.60
2019-03-26T12:21:19.938Z,99023.13
2019-03-26T12:22:31.293Z,99039.91
2019-03-26T12:23:38.061Z,99031.94
2019-03-26T12:24:46.213Z,99035.53
2019-03-26T12:25:54.126Z,99024.87
2019-03-26T12:27:02.770Z,99030.22
2019-03-26T12:28:11.488Z,99037.91
2019-03-26T12:29:19.866Z,99024.12
2019-03-26T12:30:36.682Z,99023.34
2019-03-26T12:31:44.778Z,99016.78
2019-03-26T12:32:53.116Z,99013.72
2019-03-26T12:34:01.630Z,99014.31
2019-03-26T12:35:11.893Z,99009.09
2019-03-26T12:36:20.012Z,99007.47
2019-03-26T12:37:28.694Z,99019.98
2019-03-26T12:38:36.648Z,99014.88
2019-03-26T12:39:44.955Z,99015.40
2019-03-26T12:40:53.265Z,98999.66
2019-03-26T12:42:01.247Z,99004.11
2019-03-26T12:43:09.421Z,98995.39
2019-03-26T12:44:17.412Z,98994.00
2019-03-26T12:45:26.026Z,99003.27
2019-03-26T12:46:34.227Z,98995.47
2019-03-26T12:47:42.462Z,98996.94
2019-03-26T12:48:50.584Z,98991.95
2019-03-26T12:49:58.511Z,98994.55
2019-03-26T12:51:06.718Z,98995.05
2019-03-26T12:52:14.789Z,98976.92
2019-03-26T12:53:22.884Z,98979.83
2019-03-26T12:54:31.073Z,98981.25
2019-03-26T12:55:39.201Z,98986.30
2019-03-26T12:56:47.299Z,98975.78
2019-03-26T12:57:55.362Z,98988.83
2019-03-26T12:59:03.273Z,98985.75
2019-03-26T13:00:11.617Z,98983.92
2019-03-26T13:01:19.667Z,98979.02
2019-03-26T13:02:27.955Z,98977.23
2019-03-26T13:03:36.107Z,98976.55
2019-03-26T13:04:44.168Z,98970.51
2019-03-26T13:05:52.378Z,98979.52
2019-03-26T13:07:00.306Z,98973.50
2019-03-26T13:08:08.364Z,98968.83
2019-03-26T13:09:16.192Z,98969.84
2019-03-26T13:10:24.187Z,98973.28
2019-03-26T13:11:32.061Z,98969.44
2019-03-26T13:12:39.999Z,98968.76
2019-03-26T13:13:48.340Z,98959.23
2019-03-26T13:14:59.253Z,98964.13
2019-03-26T13:16:06.169Z,98972.17
2019-03-26T13:17:14.187Z,98944.48
2019-03-26T13:18:22.284Z,98945.23
2019-03-26T13:19:30.802Z,98945.85
2019-03-26T13:20:38.873Z,98938.20
2019-03-26T13:21:46.778Z,98935.91